GalaxyControl    Crypto Space Commander - Recent OpenSea Sales   v0.1
Ships and modules from Crypto Space Commanders sold for CryptoCurrency and thus real value.
Data is gathered every 6 hours from the OpenSea API. Since the main reason to gather the data is to track prices only non-bundled sales are processed.
Transaction Owner Asset Price
Time ID Old owner New owner Icon Asset Tech Currency Price Dollar value
03.06.2021 18:08 121947688 37f37f24 0ca86f1c Harvester MP T1 ETH 0,069 193,4
28.01.2021 20:28 77171816 37f37f24 DaniPhoenix Prospector MP T1 ETH 0,018 24,2
28.01.2021 20:19 77170222 37f37f24 DaniPhoenix Prospector MP T1 ETH 0,018 24,2
18.01.2021 21:01 74674519 37f37f24 12345 Prospector MP T1 ETH 0,025 30,8
29.10.2020 22:27 56449077 37f37f24 ceaa84ed Carrier MP T1 ETH 0,240 92,6
19.10.2020 15:04 54144854 37f37f24 47c3eb3d Nightsaber MP T1 ETH 0,290 108,9
09.07.2020 23:44 33705438 Eirenex 37f37f24 Voyager MP T1 ETH 0,120 28,9
25.06.2020 20:46 31779294 a2cb00f0 37f37f24 Kindled R2 Kinetic Shield T1 ETH 0,030 7,0
25.06.2020 20:45 31779109 ChuckdGaf 37f37f24 Kindled R2 Kinetic Shield T1 ETH 0,015 3,5
25.06.2020 20:39 31778602 ChuckdGaf 37f37f24 Kindled R2 Kinetic Shield T2 ETH 0,040 9,3
25.06.2020 20:39 31778594 ChuckdGaf 37f37f24 Kindled R2 Kinetic Shield T1 ETH 0,015 3,5
25.06.2020 20:38 31778575 ChuckdGaf 37f37f24 Kindled R2 Kinetic Shield T1 ETH 0,015 3,5
25.06.2020 20:38 31778561 ChuckdGaf 37f37f24 Kindled R2 Kinetic Shield T1 ETH 0,015 3,5
24.06.2020 02:46 31542579 37f37f24 Duax24 Photonic Cannon T1 WETH 0,140 34,3
16.06.2020 20:45 30595416 37f37f24 63B133 Sovereign Class T1 ETH 0,390 91,2
16.06.2020 00:16 30494198 37f37f24 37ebd384 D'deridex-Class Warbird T1 ETH 0,830 190,2
14.06.2020 01:08 30244256 37f37f24 63B133 Sovereign Class T1 ETH 0,390 92,7
12.06.2020 02:04 30012477 37f37f24 36a25013 U.S.S. Voyager NCC-74656 T1 ETH 0,390 90,8
11.06.2020 07:15 29913870 37f37f24 Tera83 Sovereign Class T1 ETH 0,390 96,1
10.06.2020 07:06 29775500 37f37f24 NorthLand Sovereign Class T1 ETH 0,420 102,3
09.06.2020 02:55 29602078 37f37f24 142536x Sovereign Class T1 ETH 0,390 95,1
09.06.2020 02:07 29597844 37f37f24 Rippersith Sovereign Class T1 ETH 0,390 95,1
05.06.2020 16:17 29201274 37f37f24 Tuerdyboi D'deridex-Class Warbird T1 ETH 0,870 212,0
05.06.2020 04:06 29145564 37f37f24 Guch Sovereign Class T1 ETH 0,450 110,9
05.06.2020 01:21 29128965 37f37f24 7d205654 Sovereign Class T1 ETH 0,450 109,7
04.06.2020 23:39 29119063 37f37f24 bibbi4 D'deridex-Class Warbird T1 ETH 0,890 216,9
30.05.2020 15:37 28484092 06c711ca 37f37f24 Sovereign Class T1 WETH 0,450 102,5
30.05.2020 15:21 28482849 37f37f24 Successor D'deridex-Class Warbird T1 WETH 1,300 296,0
21.05.2020 17:42 26841350 Ltzonda 37f37f24 U.S.S. Voyager NCC-74656 T1 ETH 0,500 99,0
20.05.2020 00:39 26299051 37f37f24 RyanJK Scrapper MP T1 ETH 0,054 11,6
20.05.2020 00:39 26299055 37f37f24 RyanJK Scrapper MP T1 ETH 0,054 11,6
09.05.2020 16:04 23333145 37f37f24 SpigFun Dolo Dji21 Mesh Booster T4 ETH 0,150 31,7
30.04.2020 10:41 20759264 Pranked 37f37f24 Scrapper MP T1 ETH 0,099 20,9
20.04.2020 08:57 18964426 a015fe2a 37f37f24 Scrapper MP T1 ETH 0,110 20,0
20.04.2020 08:36 18964043 ef00ca54 37f37f24 Scrapper MP T1 ETH 0,104 18,9
18.04.2020 05:40 18878955 37f37f24 backwerd Argent Converter v3.0.5 T1 ETH 0,025 4,3
18.04.2020 05:40 18878954 37f37f24 backwerd Argent Converter v3.0.5 T1 ETH 0,025 4,3
14.04.2020 22:56 18741385 37f37f24 Acido Argent Converter v3.0.5 T1 ETH 0,025 3,9
14.04.2020 20:42 18734969 37f37f24 WhyDoIkeepDoingThis Argent Converter v3.0.5 T1 ETH 0,019 3,0
11.04.2020 16:40 18603923 BipedalAuk 37f37f24 Electrum Pulse X1 Scanner T1 ETH 0,130 20,1
10.04.2020 18:28 18567816 37f37f24 erock BB Alpha Core Class 4 T1 ETH 0,024 3,8
10.04.2020 01:03 18533686 37f37f24 Lystashe Sol XXI Dredge Expander T1 ETH 0,049 8,3
07.04.2020 03:09 18392636 37f37f24 BlackKettle BB Alpha Core Class 4 T1 WETH 0,021 3,6
07.04.2020 03:09 18392632 37f37f24 BlackKettle BB Alpha Core Class 4 T1 WETH 0,020 3,4
07.04.2020 00:45 18387335 37f37f24 BlackKettle BB Alpha Core Class 4 T1 WETH 0,020 3,4
07.04.2020 00:45 18387339 37f37f24 BlackKettle BB Alpha Core Class 4 T1 WETH 0,020 3,4
07.04.2020 00:45 18387337 37f37f24 BlackKettle BB Alpha Core Class 4 T1 WETH 0,020 3,4
07.04.2020 00:43 18387229 37f37f24 BlackKettle BB Alpha Core Class 4 T1 WETH 0,021 3,5
06.04.2020 23:06 18382432 37f37f24 BlackKettle BB Alpha Core Class 4 T1 WETH 0,022 3,7
06.04.2020 22:30 18381149 37f37f24 BlackKettle BB Alpha Core Class 4 T1 WETH 0,020 3,4
06.04.2020 22:30 18381157 37f37f24 BlackKettle BB Alpha Core Class 4 T1 WETH 0,020 3,4
06.04.2020 22:30 18381162 37f37f24 BlackKettle BB Alpha Core Class 4 T1 WETH 0,020 3,4
03.04.2020 18:14 18241241 37f37f24 Ambrose Photonic Cannon T1 ETH 0,290 40,8
02.04.2020 20:59 18197555 37f37f24 erock BB Alpha Core No. 26 T1 ETH 0,049 6,9
02.04.2020 20:57 18197516 37f37f24 erock BB Alpha Core No. 26 T1 ETH 0,049 6,9
02.04.2020 20:57 18197527 37f37f24 erock BB Alpha Core No. 26 T1 ETH 0,049 6,9
02.04.2020 20:57 18197483 37f37f24 erock BB Alpha Core No. 26 T1 ETH 0,049 6,9
02.04.2020 20:57 18197486 37f37f24 erock BB Alpha Core No. 26 T1 ETH 0,049 6,9
02.04.2020 20:44 18197076 37f37f24 erock BB Alpha Core No. 26 T1 ETH 0,049 6,9
02.04.2020 20:44 18197074 37f37f24 erock BB Alpha Core No. 26 T1 ETH 0,049 6,9
01.04.2020 05:27 18119044 37f37f24 DojiFlip Dolo Dji21 Mesh Booster T3 ETH 0,120 15,9
01.04.2020 04:36 18118017 37f37f24 Unity Vulcan Kaya Z1 Mesh Caster T1 ETH 0,049 6,5
01.04.2020 01:48 18113766 37f37f24 Tinman Sol XXI Dredge Expander T1 ETH 0,044 5,8
30.03.2020 14:23 18047446 37f37f24 Deseyfer Sol XXI Dredge Expander T1 ETH 0,049 6,3
30.03.2020 13:06 18044964 37f37f24 Deseyfer Sol XXI Dredge Expander T1 ETH 0,059 7,6
28.03.2020 06:26 17943203 37f37f24 CryptoSpaceCommander-User Sol XXI Dredge Expander T1 ETH 0,069 8,9
27.03.2020 23:18 17928872 37f37f24 Ragnar Nightsaber MP T1 ETH 1,590 204,0
24.03.2020 00:36 17742043 37f37f24 UnityMS Gallimide Pulse Miner T3 ETH 0,129 17,6
23.03.2020 11:45 17713435 37f37f24 MolekMan Prospector MP T1 WETH 0,450 58,6
23.03.2020 02:28 17697122 37f37f24 Unity Vulcan Mass Extractor T1 ETH 0,190 23,4
23.03.2020 02:28 17697125 37f37f24 Unity Vulcan Mass Extractor T1 ETH 0,190 23,4
23.03.2020 00:18 17693620 37f37f24 AI Vulcan Mass Extractor T1 WETH 0,150 18,5
21.03.2020 14:04 17622764 37f37f24 lodaddy Vulcan Kaya Z1 Mesh Caster T1 ETH 0,049 6,4
21.03.2020 13:11 17621185 Pranked 37f37f24 Nomad MP T1 ETH 0,140 18,3
19.03.2020 01:39 17479543 37f37f24 UlteriorMotives The Phalanx T3 ETH 0,090 10,5
17.03.2020 15:54 17401068 37f37f24 seno Inferno MP T1 ETH 0,079 9,3
15.03.2020 16:59 17295014 37f37f24 Jadystana Dolo Dji21 Mesh Booster T1 ETH 0,029 3,7
15.03.2020 03:06 17268484 Ejiri-reijiro 37f37f24 Photonic Cannon T1 ETH 0,265 32,4
15.03.2020 01:00 17264441 37f37f24 Lystashe Vulcan Mass Extractor T1 ETH 0,290 35,5
14.03.2020 19:10 17251347 37f37f24 CutieKing Vulcan Kaya Z1 Mesh Caster T1 ETH 0,059 7,5
14.03.2020 18:59 17251085 37f37f24 CutieKing Vulcan Kaya Z1 Mesh Caster T1 ETH 0,059 7,5
14.03.2020 18:58 17251037 37f37f24 CutieKing Vulcan Kaya Z1 Mesh Caster T1 ETH 0,059 7,5
14.03.2020 17:28 17247720 37f37f24 Deseyfer Vulcan Kaya Z1 Mesh Caster T1 ETH 0,059 7,5
14.03.2020 17:26 17247635 37f37f24 CutieKing Vulcan Kaya Z1 Mesh Caster T1 ETH 0,059 7,5
14.03.2020 14:16 17239494 Mellowmoods 37f37f24 VI 51 Trilite Beam Cutter T1 ETH 0,040 5,1
14.03.2020 14:16 17239496 af305a55 37f37f24 VI 51 Trilite Beam Cutter T1 ETH 0,035 4,4
14.03.2020 14:15 17239476 a2cb00f0 37f37f24 VI 51 Trilite Beam Cutter T1 ETH 0,033 4,2
14.03.2020 14:14 17239451 JimHopper 37f37f24 VI 51 Trilite Beam Cutter T1 ETH 0,028 3,6
14.03.2020 14:11 17239318 37f37f24 Deseyfer Vulcan Kaya Z1 Mesh Caster T1 WETH 0,060 7,6
14.03.2020 14:10 17239294 37f37f24 Deseyfer Vulcan Kaya Z1 Mesh Caster T1 WETH 0,060 7,6
13.03.2020 23:37 17211647 37f37f24 CutieKing Vulcan Kaya Z1 Mesh Caster T1 ETH 0,079 10,6
11.03.2020 01:17 16997711 37f37f24 E5K1M0 Debel Z1 Plasma Shield T3 WETH 0,029 5,8
10.03.2020 04:19 16948280 37f37f24 Deseyfer Dolo Dji21 Mesh Booster T1 ETH 0,025 5,0
10.03.2020 04:12 16948126 37f37f24 Deseyfer Dolo Dji21 Mesh Booster T1 ETH 0,025 5,0
10.03.2020 04:11 16948097 37f37f24 Deseyfer Dolo Dji21 Mesh Booster T1 ETH 0,025 5,0
10.03.2020 02:30 16944963 37f37f24 380b1528 Horizon MP T1 WETH 0,600 121,7
09.03.2020 20:26 16930340 37f37f24 E5K1M0 Debel Z1 Plasma Shield T3 ETH 0,029 5,7
09.03.2020 20:20 16930200 37f37f24 E5K1M0 Debel Z1 Plasma Shield T3 ETH 0,029 5,7
09.03.2020 19:23 16927475 37f37f24 7e6d7db0 Debel Z1 Plasma Shield T3 ETH 0,029 5,7
09.03.2020 19:22 16927439 37f37f24 7e6d7db0 Debel Z1 Plasma Shield T3 ETH 0,029 5,7
Apache Webserver PHP MySQL Firefox Twitter @Galaxy_Control   |   Support me via:   Support via Ethereum Support via Patreon